• Join FlightAware (Why Join?)
  • Login
  • US Flag 
05:36PM EDT


 

Airport Tracker/Info


-or-


 

Live Flight TrackerFlight Track Log ✈ EJA122 ✈ 20-Apr-2013 ✈ KMDW - KJZI

Flight Track Log - Related Links

Times and Time Zones

All times are in EDT time to prevent confusion due to time zone crossing. See the EJA122 flight status page for this flight to view local times or setup timezone preferences in your user account.

Time Position Orientation Groundspeed Altitude Reporting Facility
EDT Latitude Longitude Course Direction KTS MPH feet Rate Location/Type
11:05AM 41.7833 -87.8000 171° South 211 243 3,000  Level Chicago TRACON
11:06AM 41.7333 -87.8500 217° Southwest 254 292 3,600 1,620 Climbing Chicago TRACON
11:08AM 41.6044 -87.7522 150° Southeast 297 342 8,000 1,920 Climbing Chicago Center
11:09AM 41.5275 -87.6775 144° Southeast 305 351 9,500 2,040 Climbing Chicago Center
11:10AM 41.3038 -87.5474 171° South  Level FlightAware Approximate
11:10AM 41.4386 -87.6381 162° South 318 366 12,300  Level Chicago Center
11:11AM 41.3428 -87.6114 168° South 343 395 14,000 1,140 Climbing Chicago Center
11:12AM 41.2331 -87.5897 172° South 392 451 14,700 1,020 Climbing Chicago Center
11:13AM 41.1211 -87.5697 172° South 400 460 16,200 1,500 Climbing Chicago Center
11:14AM 41.0067 -87.5197 162° South 427 491 17,800 1,380 Climbing Chicago Center
11:15AM 40.8900 -87.4750 164° South 434 499 19,100 1,380 Climbing Chicago Center
11:16AM 40.7708 -87.4297 164° South 442 509 20,700 1,620 Climbing Chicago Center
11:17AM 40.6311 -87.3719 163° South 441 507 22,500 1,680 Climbing Chicago Center
11:18AM 40.5206 -87.2950 152° Southeast 451 519 24,200 1,560 Climbing Chicago Center
11:19AM 40.4061 -87.2222 154° Southeast 456 525 25,700 1,500 Climbing Chicago Center
11:20AM 40.2969 -87.1403 150° Southeast 454 522 27,300 1,260 Climbing Chicago Center
11:21AM 40.1844 -87.0586 151° Southeast 461 531 28,400 1,140 Climbing Chicago Center
11:22AM 40.1061 -87.0017 151° Southeast 463 533 29,300 1,200 Climbing Indianapolis Center
11:23AM 39.9842 -86.9511 162° South 460 529 30,500 1,080 Climbing Indianapolis Center
11:24AM 39.8631 -86.9089 165° South 451 519 31,600 1,080 Climbing Indianapolis Center
11:25AM 39.7442 -86.8658 164° South 444 511 32,800 1,140 Climbing Indianapolis Center
11:26AM 39.6253 -86.8183 163° South 443 510 34,000 1,260 Climbing Indianapolis Center
11:27AM 39.4922 -86.7375 155° Southeast 449 517 35,400 1,200 Climbing Indianapolis Center
11:28AM 39.3892 -86.6486 146° Southeast 443 510 36,500 960 Climbing Indianapolis Center
11:29AM 39.2894 -86.5639 147° Southeast 430 495 37,400 900 Climbing Indianapolis Center
11:30AM 39.1914 -86.4797 146° Southeast 422 486 38,400 780 Climbing Indianapolis Center
11:31AM 39.0958 -86.4006 147° Southeast 409 471 39,000 240 Climbing Indianapolis Center
11:32AM 39.0000 -86.3183 146° Southeast 410 472 39,000  Level Indianapolis Center
11:33AM 38.9003 -86.2361 147° Southeast 419 482 39,000  Level Indianapolis Center
11:34AM 38.7986 -86.1494 146° Southeast 431 496 39,000  Level Indianapolis Center
11:35AM 38.6956 -86.0650 147° Southeast 435 501 39,000  Level Indianapolis Center
11:36AM 38.5919 -85.9792 147° Southeast 439 505 39,000  Level Indianapolis Center
11:37AM 38.4875 -85.8928 147° Southeast 444 511 39,000  Level Indianapolis Center
11:38AM 38.3856 -85.8069 147° Southeast 437 503 39,000  Level Indianapolis Center
11:39AM 38.2783 -85.7197 147° Southeast 450 518 39,000  Level Indianapolis Center
11:40AM 38.1731 -85.6347 148° Southeast 446 513 39,000  Level Indianapolis Center
11:41AM 38.0464 -85.5317 147° Southeast 448 516 39,000  Level Indianapolis Center
11:42AM 37.9428 -85.4469 147° Southeast 443 510 39,000  Level Indianapolis Center
11:43AM 37.8358 -85.3619 148° Southeast 447 514 39,000  Level Indianapolis Center
11:44AM 37.7256 -85.2803 150° Southeast 452 520 39,000  Level Indianapolis Center
11:45AM 37.6200 -85.1967 148° Southeast 448 516 39,000  Level Indianapolis Center
11:46AM 37.5128 -85.1156 149° Southeast 448 516 39,000  Level Indianapolis Center
11:47AM 37.4075 -85.0325 148° Southeast 446 513 39,000  Level Indianapolis Center
11:48AM 37.3008 -84.9503 148° Southeast 449 517 39,000  Level Indianapolis Center
11:50AM 37.1939 -84.8678 148° Southeast 450 518 39,000  Level Indianapolis Center
11:51AM 37.0697 -84.7711 148° Southeast 449 517 39,000  Level Indianapolis Center
11:52AM 36.9661 -84.6933 149° Southeast 447 514 39,000  Level Indianapolis Center
11:53AM 36.8600 -84.6119 148° Southeast 446 513 39,000  Level Indianapolis Center
11:54AM 36.7531 -84.5308 149° Southeast 447 514 39,000  Level Indianapolis Center
11:55AM 36.6475 -84.4508 149° Southeast 440 506 39,000  Level Indianapolis Center
11:56AM 36.5422 -84.3711 149° Southeast 440 506 39,000  Level Indianapolis Center
11:58AM 36.3292 -84.2114 149° Southeast 442 509 39,000  Level Atlanta Center
11:59AM 36.2272 -84.1339 148° Southeast 442 509 39,000  Level Atlanta Center
12:00PM 36.1250 -84.0567 149° Southeast 437 503 39,000  Level Atlanta Center
12:01PM 36.0208 -83.9797 149° Southeast 437 503 39,000  Level Atlanta Center
12:02PM 35.9164 -83.9056 150° Southeast 437 503 39,000  Level Atlanta Center
12:03PM 35.8142 -83.8236 147° Southeast 437 503 39,000  Level Atlanta Center
12:04PM 35.7117 -83.7394 146° Southeast 443 510 39,000  Level Atlanta Center
12:05PM 35.6133 -83.6608 147° Southeast 443 510 39,000  Level Atlanta Center
12:06PM 35.5108 -83.5769 146° Southeast 438 504 39,000  Level Atlanta Center
12:07PM 35.4083 -83.4961 147° Southeast 433 498 39,000  Level Atlanta Center
12:08PM 35.3056 -83.4128 147° Southeast 433 498 39,000  Level Atlanta Center
12:09PM 35.2050 -83.3322 147° Southeast 433 498 39,000  Level Atlanta Center
12:10PM 35.1086 -83.2517 146° Southeast 428 493 39,000  Level Atlanta Center
12:11PM 35.0081 -83.1792 149° Southeast 428 493 39,000  Level Atlanta Center
12:12PM 34.9092 -83.0967 146° Southeast 428 493 39,000  Level Atlanta Center
12:13PM 34.8189 -83.0267 148° Southeast 425 489 39,000 -360 Level Atlanta Center
12:14PM 34.7222 -82.9469 146° Southeast 425 489 38,300 -1,140 Descending Atlanta Center
12:15PM 34.6256 -82.8725 148° Southeast 419 482 36,800 -1,560 Descending Atlanta Center
12:16PM 34.5353 -82.8006 147° Southeast 406 467 35,200 -1,560 Descending Atlanta Center
12:17PM 34.4383 -82.7292 149° Southeast 398 458 33,700 -1,500 Descending Atlanta Center
12:18PM 34.3436 -82.6525 146° Southeast 390 449 32,200 -900 Descending Atlanta Center
12:19PM 34.2489 -82.5811 148° Southeast 390 449 32,000 -660 Descending Atlanta Center
12:20PM 34.1583 -82.5100 147° Southeast 395 455 30,900 -1,620 Descending Atlanta Center
12:21PM 34.0614 -82.4389 149° Southeast 395 455 28,800 -1,980 Descending Atlanta Center
12:22PM 33.9664 -82.3631 146° Southeast 403 464 27,000 -900 Descending Atlanta Center
12:23PM 33.8694 -82.2900 148° Southeast 408 470 27,000  Level Atlanta Center
12:25PM 33.6622 -82.0292 134° Southeast 454 522 27,000 -180 Level Jacksonville Center
12:26PM 33.6153 -81.8700 109° East 468 539 26,500 -1,020 Descending Jacksonville Center
12:27PM 33.5658 -81.7186 111° Southeast 479 551 25,000 -780 Descending Jacksonville Center
12:28PM 33.5186 -81.5647 110° East 484 557 25,000 -540 Level Jacksonville Center
12:29PM 33.4708 -81.4136 111° Southeast 490 564 24,000 -540 Descending Jacksonville Center
12:30PM 33.4275 -81.2772 111° Southeast 485 558 24,000 -600 Level Jacksonville Center
12:31PM 33.3817 -81.1364 111° Southeast 472 543 22,900 -2,400 Descending Jacksonville Center
12:32PM 33.3403 -81.0006 110° East 450 518 19,300 -3,480 Descending Jacksonville Center
12:33PM 33.2942 -80.8697 113° Southeast 435 501 16,000 -3,300 Descending Jacksonville Center
12:34PM 33.2547 -80.7464 111° Southeast 414 476 12,800 -2,520 Descending Jacksonville Center
12:35PM 33.2150 -80.6258 111° Southeast 395 455 11,000 -1,320 Descending Jacksonville Center
12:36PM 33.1775 -80.5100 111° Southeast 384 442 10,200 -1,080 Descending Jacksonville Center
12:37PM 33.1464 -80.4192 112° Southeast 344 396 8,900 -1,680 Descending Jacksonville Center
12:38PM 33.0808 -80.3789 153° Southeast 289 333 6,900 -1,500 Descending Jacksonville Center
12:39PM 33.0078 -80.3783 180° South 250 288 5,900 -480 Descending Jacksonville Center
12:40PM 32.9347 -80.3756 178° South 257 296 6,000  Climbing Jacksonville Center
12:41PM 32.8617 -80.3725 178° South 262 302 5,900 -540 Descending Jacksonville Center
12:42PM 32.8000 -80.3200 144° Southeast 262 302 5,000 -960 Descending Jacksonville Center
12:43PM 32.7425 -80.2622 140° Southeast 257 296 4,000 -1,020 Descending Jacksonville Center
12:45PM 32.7121 -80.0719 132° Southeast  Level Estimated